sensor_id;sensor_type;location;lat;lon;timestamp;P1;durP1;ratioP1;P2;durP2;ratioP2
72156;SDS011;60035;52.122;5.406;2022-12-20T00:01:24;6.43;;;2.63;;
72156;SDS011;60035;52.122;5.406;2022-12-20T00:03:56;6.53;;;2.67;;
72156;SDS011;60035;52.122;5.406;2022-12-20T00:06:24;9.48;;;2.55;;
72156;SDS011;60035;52.122;5.406;2022-12-20T00:08:55;6.60;;;2.55;;
72156;SDS011;60035;52.122;5.406;2022-12-20T00:11:23;8.90;;;2.97;;
72156;SDS011;60035;52.122;5.406;2022-12-20T00:13:51;7.63;;;2.58;;
72156;SDS011;60035;52.122;5.406;2022-12-20T00:16:19;6.55;;;2.45;;
72156;SDS011;60035;52.122;5.406;2022-12-20T00:18:51;8.60;;;2.55;;
72156;SDS011;60035;52.122;5.406;2022-12-20T00:21:23;5.05;;;2.10;;
72156;SDS011;60035;52.122;5.406;2022-12-20T00:23:50;7.80;;;2.40;;
72156;SDS011;60035;52.122;5.406;2022-12-20T00:26:19;7.07;;;2.20;;
72156;SDS011;60035;52.122;5.406;2022-12-20T00:28:47;7.00;;;2.40;;
72156;SDS011;60035;52.122;5.406;2022-12-20T00:31:15;7.72;;;2.50;;
72156;SDS011;60035;52.122;5.406;2022-12-20T00:33:46;6.32;;;2.50;;
72156;SDS011;60035;52.122;5.406;2022-12-20T00:36:15;6.18;;;2.30;;
72156;SDS011;60035;52.122;5.406;2022-12-20T00:38:47;6.68;;;2.53;;
72156;SDS011;60035;52.122;5.406;2022-12-20T00:43:42;6.68;;;1.70;;
72156;SDS011;60035;52.122;5.406;2022-12-20T00:46:09;7.30;;;2.50;;
72156;SDS011;60035;52.122;5.406;2022-12-20T00:48:37;6.75;;;2.40;;
72156;SDS011;60035;52.122;5.406;2022-12-20T00:51:06;9.05;;;2.30;;
72156;SDS011;60035;52.122;5.406;2022-12-20T00:53:37;8.35;;;2.30;;
72156;SDS011;60035;52.122;5.406;2022-12-20T00:56:05;5.47;;;2.10;;
72156;SDS011;60035;52.122;5.406;2022-12-20T00:58:33;6.38;;;2.25;;
72156;SDS011;60035;52.122;5.406;2022-12-20T01:01:01;8.00;;;2.47;;
72156;SDS011;60035;52.122;5.406;2022-12-20T01:03:28;6.43;;;2.35;;
72156;SDS011;60035;52.122;5.406;2022-12-20T01:05:56;6.15;;;2.30;;
72156;SDS011;60035;52.122;5.406;2022-12-20T01:08:26;5.15;;;1.95;;
72156;SDS011;60035;52.122;5.406;2022-12-20T01:11:02;5.93;;;2.05;;
72156;SDS011;60035;52.122;5.406;2022-12-20T01:13:49;8.85;;;2.90;;
72156;SDS011;60035;52.122;5.406;2022-12-20T01:16:31;6.68;;;2.28;;
72156;SDS011;60035;52.122;5.406;2022-12-20T01:19:02;5.85;;;2.00;;
72156;SDS011;60035;52.122;5.406;2022-12-20T01:21:29;6.35;;;2.05;;
72156;SDS011;60035;52.122;5.406;2022-12-20T01:23:56;7.20;;;1.98;;
72156;SDS011;60035;52.122;5.406;2022-12-20T01:26:24;7.38;;;2.75;;
72156;SDS011;60035;52.122;5.406;2022-12-20T01:28:53;6.07;;;2.53;;
72156;SDS011;60035;52.122;5.406;2022-12-20T01:31:21;8.85;;;2.53;;
72156;SDS011;60035;52.122;5.406;2022-12-20T01:33:49;6.75;;;2.30;;
72156;SDS011;60035;52.122;5.406;2022-12-20T01:36:21;6.47;;;2.20;;
72156;SDS011;60035;52.122;5.406;2022-12-20T01:38:53;6.75;;;2.60;;
72156;SDS011;60035;52.122;5.406;2022-12-20T01:41:22;8.00;;;2.70;;
72156;SDS011;60035;52.122;5.406;2022-12-20T01:43:50;7.95;;;2.85;;
72156;SDS011;60035;52.122;5.406;2022-12-20T01:46:19;8.40;;;2.58;;
72156;SDS011;60035;52.122;5.406;2022-12-20T01:48:55;6.85;;;2.70;;
72156;SDS011;60035;52.122;5.406;2022-12-20T01:51:43;7.07;;;2.40;;
72156;SDS011;60035;52.122;5.406;2022-12-20T01:54:15;7.43;;;2.83;;
72156;SDS011;60035;52.122;5.406;2022-12-20T01:56:53;9.32;;;2.85;;
72156;SDS011;60035;52.122;5.406;2022-12-20T01:59:24;8.25;;;2.72;;
72156;SDS011;60035;52.122;5.406;2022-12-20T02:01:52;8.07;;;2.60;;
72156;SDS011;60035;52.122;5.406;2022-12-20T02:04:23;7.25;;;2.53;;
72156;SDS011;60035;52.122;5.406;2022-12-20T02:06:50;7.97;;;2.58;;
72156;SDS011;60035;52.122;5.406;2022-12-20T02:09:16;6.85;;;2.40;;
72156;SDS011;60035;52.122;5.406;2022-12-20T02:25:43;8.30;;;2.83;;
72156;SDS011;60035;52.122;5.406;2022-12-20T02:28:24;7.13;;;2.90;;
72156;SDS011;60035;52.122;5.406;2022-12-20T02:31:18;5.80;;;2.53;;
72156;SDS011;60035;52.122;5.406;2022-12-20T02:33:50;7.40;;;3.00;;
72156;SDS011;60035;52.122;5.406;2022-12-20T02:36:18;8.48;;;3.40;;
72156;SDS011;60035;52.122;5.406;2022-12-20T02:38:45;7.97;;;2.88;;
72156;SDS011;60035;52.122;5.406;2022-12-20T02:43:51;8.65;;;3.25;;
72156;SDS011;60035;52.122;5.406;2022-12-20T02:46:40;9.75;;;2.92;;
72156;SDS011;60035;52.122;5.406;2022-12-20T02:49:09;7.63;;;3.05;;
72156;SDS011;60035;52.122;5.406;2022-12-20T02:51:40;7.35;;;2.70;;
72156;SDS011;60035;52.122;5.406;2022-12-20T02:54:09;9.50;;;2.90;;
72156;SDS011;60035;52.122;5.406;2022-12-20T02:56:45;6.57;;;2.38;;
72156;SDS011;60035;52.122;5.406;2022-12-20T02:59:13;10.45;;;2.83;;
72156;SDS011;60035;52.122;5.406;2022-12-20T03:01:44;6.45;;;2.55;;
72156;SDS011;60035;52.122;5.406;2022-12-20T03:04:16;8.50;;;3.03;;
72156;SDS011;60035;52.122;5.406;2022-12-20T03:06:58;7.78;;;3.00;;
72156;SDS011;60035;52.122;5.406;2022-12-20T03:09:27;8.65;;;3.15;;
72156;SDS011;60035;52.122;5.406;2022-12-20T03:11:56;7.88;;;3.20;;
72156;SDS011;60035;52.122;5.406;2022-12-20T03:14:23;7.20;;;2.90;;
72156;SDS011;60035;52.122;5.406;2022-12-20T03:16:50;8.32;;;3.08;;
72156;SDS011;60035;52.122;5.406;2022-12-20T03:19:16;8.93;;;2.85;;
72156;SDS011;60035;52.122;5.406;2022-12-20T03:21:43;7.90;;;3.05;;
72156;SDS011;60035;52.122;5.406;2022-12-20T03:24:10;7.60;;;3.13;;
72156;SDS011;60035;52.122;5.406;2022-12-20T03:26:39;9.18;;;3.50;;
72156;SDS011;60035;52.122;5.406;2022-12-20T03:29:06;9.70;;;2.95;;
72156;SDS011;60035;52.122;5.406;2022-12-20T03:31:33;9.35;;;2.83;;
72156;SDS011;60035;52.122;5.406;2022-12-20T03:34:01;8.57;;;2.63;;
72156;SDS011;60035;52.122;5.406;2022-12-20T03:36:28;5.88;;;2.20;;
72156;SDS011;60035;52.122;5.406;2022-12-20T03:38:56;6.63;;;2.70;;
72156;SDS011;60035;52.122;5.406;2022-12-20T03:41:23;7.75;;;2.83;;
72156;SDS011;60035;52.122;5.406;2022-12-20T03:43:51;8.32;;;2.60;;
72156;SDS011;60035;52.122;5.406;2022-12-20T03:46:18;8.23;;;2.58;;
72156;SDS011;60035;52.122;5.406;2022-12-20T03:48:44;7.72;;;2.80;;
72156;SDS011;60035;52.122;5.406;2022-12-20T03:51:11;7.57;;;2.78;;
72156;SDS011;60035;52.122;5.406;2022-12-20T03:53:37;8.27;;;2.70;;
72156;SDS011;60035;52.122;5.406;2022-12-20T03:56:04;7.50;;;3.00;;
72156;SDS011;60035;52.122;5.406;2022-12-20T03:58:31;8.57;;;3.05;;
72156;SDS011;60035;52.122;5.406;2022-12-20T04:00:58;8.35;;;2.97;;
72156;SDS011;60035;52.122;5.406;2022-12-20T04:03:24;6.70;;;2.88;;
72156;SDS011;60035;52.122;5.406;2022-12-20T04:05:51;7.82;;;2.83;;
72156;SDS011;60035;52.122;5.406;2022-12-20T04:08:17;6.45;;;2.50;;
72156;SDS011;60035;52.122;5.406;2022-12-20T04:10:44;5.65;;;2.33;;
72156;SDS011;60035;52.122;5.406;2022-12-20T04:13:29;7.93;;;2.92;;
72156;SDS011;60035;52.122;5.406;2022-12-20T04:15:55;7.95;;;2.88;;
72156;SDS011;60035;52.122;5.406;2022-12-20T04:18:26;7.18;;;2.53;;
72156;SDS011;60035;52.122;5.406;2022-12-20T04:20:52;9.20;;;2.90;;
72156;SDS011;60035;52.122;5.406;2022-12-20T04:23:20;9.73;;;2.88;;
72156;SDS011;60035;52.122;5.406;2022-12-20T04:25:46;8.10;;;2.63;;
72156;SDS011;60035;52.122;5.406;2022-12-20T04:28:13;9.63;;;2.50;;
72156;SDS011;60035;52.122;5.406;2022-12-20T04:30:39;6.85;;;2.35;;
72156;SDS011;60035;52.122;5.406;2022-12-20T04:33:06;7.38;;;2.60;;
72156;SDS011;60035;52.122;5.406;2022-12-20T04:35:32;7.50;;;2.75;;
72156;SDS011;60035;52.122;5.406;2022-12-20T04:37:59;6.68;;;2.45;;
72156;SDS011;60035;52.122;5.406;2022-12-20T04:40:25;5.68;;;2.10;;
72156;SDS011;60035;52.122;5.406;2022-12-20T04:42:52;6.60;;;2.35;;
72156;SDS011;60035;52.122;5.406;2022-12-20T04:45:18;6.97;;;2.42;;
72156;SDS011;60035;52.122;5.406;2022-12-20T04:47:45;8.55;;;2.95;;
72156;SDS011;60035;52.122;5.406;2022-12-20T04:50:12;7.05;;;2.50;;
72156;SDS011;60035;52.122;5.406;2022-12-20T04:52:38;7.28;;;2.60;;
72156;SDS011;60035;52.122;5.406;2022-12-20T04:55:26;5.63;;;1.88;;
72156;SDS011;60035;52.122;5.406;2022-12-20T04:57:53;7.30;;;2.50;;
72156;SDS011;60035;52.122;5.406;2022-12-20T05:00:20;11.32;;;3.00;;
72156;SDS011;60035;52.122;5.406;2022-12-20T05:02:47;7.68;;;2.78;;
72156;SDS011;60035;52.122;5.406;2022-12-20T05:05:14;9.27;;;2.85;;
72156;SDS011;60035;52.122;5.406;2022-12-20T05:07:40;8.23;;;2.60;;
72156;SDS011;60035;52.122;5.406;2022-12-20T05:10:07;6.32;;;2.50;;
72156;SDS011;60035;52.122;5.406;2022-12-20T05:12:34;7.68;;;3.22;;
72156;SDS011;60035;52.122;5.406;2022-12-20T05:15:00;7.18;;;2.58;;
72156;SDS011;60035;52.122;5.406;2022-12-20T05:17:27;6.82;;;2.63;;
72156;SDS011;60035;52.122;5.406;2022-12-20T05:19:53;6.40;;;2.53;;
72156;SDS011;60035;52.122;5.406;2022-12-20T05:22:20;6.90;;;2.63;;
72156;SDS011;60035;52.122;5.406;2022-12-20T05:25:05;8.77;;;3.50;;
72156;SDS011;60035;52.122;5.406;2022-12-20T05:27:50;7.50;;;2.72;;
72156;SDS011;60035;52.122;5.406;2022-12-20T05:30:17;7.25;;;2.65;;
72156;SDS011;60035;52.122;5.406;2022-12-20T05:32:43;7.95;;;2.60;;
72156;SDS011;60035;52.122;5.406;2022-12-20T05:35:10;7.95;;;2.83;;
72156;SDS011;60035;52.122;5.406;2022-12-20T05:37:37;6.40;;;2.38;;
72156;SDS011;60035;52.122;5.406;2022-12-20T05:40:03;7.65;;;2.63;;
72156;SDS011;60035;52.122;5.406;2022-12-20T05:42:30;9.48;;;2.85;;
72156;SDS011;60035;52.122;5.406;2022-12-20T05:44:57;7.28;;;2.90;;
72156;SDS011;60035;52.122;5.406;2022-12-20T05:47:23;5.35;;;2.33;;
72156;SDS011;60035;52.122;5.406;2022-12-20T05:49:50;9.55;;;2.92;;
72156;SDS011;60035;52.122;5.406;2022-12-20T05:52:17;7.57;;;3.13;;
72156;SDS011;60035;52.122;5.406;2022-12-20T05:54:43;7.93;;;2.70;;
72156;SDS011;60035;52.122;5.406;2022-12-20T05:57:10;8.38;;;2.85;;
72156;SDS011;60035;52.122;5.406;2022-12-20T05:59:36;9.23;;;3.40;;
72156;SDS011;60035;52.122;5.406;2022-12-20T06:02:03;8.13;;;2.80;;
72156;SDS011;60035;52.122;5.406;2022-12-20T06:04:30;8.93;;;2.95;;
72156;SDS011;60035;52.122;5.406;2022-12-20T06:06:57;7.78;;;2.90;;
72156;SDS011;60035;52.122;5.406;2022-12-20T06:09:25;6.80;;;2.63;;
72156;SDS011;60035;52.122;5.406;2022-12-20T06:11:51;8.13;;;3.17;;
72156;SDS011;60035;52.122;5.406;2022-12-20T06:14:18;8.30;;;2.97;;
72156;SDS011;60035;52.122;5.406;2022-12-20T06:16:45;8.20;;;2.55;;
72156;SDS011;60035;52.122;5.406;2022-12-20T06:19:12;6.13;;;2.75;;
72156;SDS011;60035;52.122;5.406;2022-12-20T06:21:46;7.10;;;2.60;;
72156;SDS011;60035;52.122;5.406;2022-12-20T06:24:13;8.23;;;2.85;;
72156;SDS011;60035;52.122;5.406;2022-12-20T06:26:40;7.28;;;2.42;;
72156;SDS011;60035;52.122;5.406;2022-12-20T06:29:07;7.40;;;2.70;;
72156;SDS011;60035;52.122;5.406;2022-12-20T06:31:35;7.13;;;2.47;;
72156;SDS011;60035;52.122;5.406;2022-12-20T06:34:02;6.80;;;2.40;;
72156;SDS011;60035;52.122;5.406;2022-12-20T06:36:28;6.93;;;2.85;;
72156;SDS011;60035;52.122;5.406;2022-12-20T06:38:55;7.20;;;2.50;;
72156;SDS011;60035;52.122;5.406;2022-12-20T06:41:22;6.60;;;2.47;;
72156;SDS011;60035;52.122;5.406;2022-12-20T06:43:48;7.72;;;2.42;;
72156;SDS011;60035;52.122;5.406;2022-12-20T06:46:15;6.10;;;2.00;;
72156;SDS011;60035;52.122;5.406;2022-12-20T06:48:42;6.80;;;2.25;;
72156;SDS011;60035;52.122;5.406;2022-12-20T06:51:09;7.80;;;2.25;;
72156;SDS011;60035;52.122;5.406;2022-12-20T06:53:36;7.88;;;2.15;;
72156;SDS011;60035;52.122;5.406;2022-12-20T06:56:03;6.90;;;2.45;;
72156;SDS011;60035;52.122;5.406;2022-12-20T06:58:30;6.55;;;2.00;;
72156;SDS011;60035;52.122;5.406;2022-12-20T07:00:56;5.20;;;2.15;;
72156;SDS011;60035;52.122;5.406;2022-12-20T07:03:23;7.50;;;2.10;;
72156;SDS011;60035;52.122;5.406;2022-12-20T07:05:53;5.90;;;2.20;;
72156;SDS011;60035;52.122;5.406;2022-12-20T07:08:21;6.18;;;2.03;;
72156;SDS011;60035;52.122;5.406;2022-12-20T07:10:49;8.23;;;2.20;;
72156;SDS011;60035;52.122;5.406;2022-12-20T07:13:18;7.00;;;2.35;;
72156;SDS011;60035;52.122;5.406;2022-12-20T07:15:45;8.57;;;2.35;;
72156;SDS011;60035;52.122;5.406;2022-12-20T07:18:11;7.22;;;2.13;;
72156;SDS011;60035;52.122;5.406;2022-12-20T07:20:38;6.47;;;1.85;;
72156;SDS011;60035;52.122;5.406;2022-12-20T07:23:05;8.35;;;2.50;;
72156;SDS011;60035;52.122;5.406;2022-12-20T07:25:32;7.68;;;1.98;;
72156;SDS011;60035;52.122;5.406;2022-12-20T07:27:59;5.13;;;2.10;;
72156;SDS011;60035;52.122;5.406;2022-12-20T07:30:25;5.78;;;2.03;;
72156;SDS011;60035;52.122;5.406;2022-12-20T07:32:52;4.32;;;1.77;;
72156;SDS011;60035;52.122;5.406;2022-12-20T07:35:18;6.60;;;1.95;;
72156;SDS011;60035;52.122;5.406;2022-12-20T07:37:45;5.50;;;2.00;;
72156;SDS011;60035;52.122;5.406;2022-12-20T07:40:12;5.93;;;2.10;;
72156;SDS011;60035;52.122;5.406;2022-12-20T07:42:40;4.93;;;1.98;;
72156;SDS011;60035;52.122;5.406;2022-12-20T07:45:13;5.22;;;1.83;;
72156;SDS011;60035;52.122;5.406;2022-12-20T07:47:40;5.35;;;2.00;;
72156;SDS011;60035;52.122;5.406;2022-12-20T07:50:07;6.85;;;1.60;;
72156;SDS011;60035;52.122;5.406;2022-12-20T07:52:34;7.03;;;1.83;;
72156;SDS011;60035;52.122;5.406;2022-12-20T07:55:03;3.90;;;1.65;;
72156;SDS011;60035;52.122;5.406;2022-12-20T07:57:35;5.82;;;2.03;;
72156;SDS011;60035;52.122;5.406;2022-12-20T08:00:09;5.00;;;1.55;;
72156;SDS011;60035;52.122;5.406;2022-12-20T08:02:40;8.32;;;2.00;;
72156;SDS011;60035;52.122;5.406;2022-12-20T08:05:12;4.72;;;1.85;;
72156;SDS011;60035;52.122;5.406;2022-12-20T08:07:40;5.88;;;1.75;;
72156;SDS011;60035;52.122;5.406;2022-12-20T08:10:09;5.35;;;1.63;;
72156;SDS011;60035;52.122;5.406;2022-12-20T08:12:38;7.00;;;1.92;;
72156;SDS011;60035;52.122;5.406;2022-12-20T08:15:06;5.63;;;1.90;;
72156;SDS011;60035;52.122;5.406;2022-12-20T08:17:33;6.28;;;1.83;;
72156;SDS011;60035;52.122;5.406;2022-12-20T08:20:00;6.63;;;1.95;;
72156;SDS011;60035;52.122;5.406;2022-12-20T08:22:27;5.35;;;1.50;;
72156;SDS011;60035;52.122;5.406;2022-12-20T08:24:53;4.13;;;1.55;;
72156;SDS011;60035;52.122;5.406;2022-12-20T08:27:20;4.25;;;1.63;;
72156;SDS011;60035;52.122;5.406;2022-12-20T08:29:47;4.80;;;1.70;;
72156;SDS011;60035;52.122;5.406;2022-12-20T08:32:15;5.65;;;2.05;;
72156;SDS011;60035;52.122;5.406;2022-12-20T08:34:41;4.38;;;1.15;;
72156;SDS011;60035;52.122;5.406;2022-12-20T08:37:08;5.60;;;1.42;;
72156;SDS011;60035;52.122;5.406;2022-12-20T08:39:40;6.05;;;1.70;;
72156;SDS011;60035;52.122;5.406;2022-12-20T08:42:07;5.18;;;1.98;;
72156;SDS011;60035;52.122;5.406;2022-12-20T08:44:34;6.57;;;1.80;;
72156;SDS011;60035;52.122;5.406;2022-12-20T08:47:00;4.68;;;1.75;;
72156;SDS011;60035;52.122;5.406;2022-12-20T08:49:27;5.43;;;1.52;;
72156;SDS011;60035;52.122;5.406;2022-12-20T08:51:54;5.22;;;1.60;;
72156;SDS011;60035;52.122;5.406;2022-12-20T08:54:20;7.15;;;1.75;;
72156;SDS011;60035;52.122;5.406;2022-12-20T08:56:47;6.18;;;1.92;;
72156;SDS011;60035;52.122;5.406;2022-12-20T08:59:14;6.32;;;1.45;;
72156;SDS011;60035;52.122;5.406;2022-12-20T09:01:40;6.13;;;2.00;;
72156;SDS011;60035;52.122;5.406;2022-12-20T09:04:08;5.15;;;2.15;;
72156;SDS011;60035;52.122;5.406;2022-12-20T09:06:36;7.95;;;2.08;;
72156;SDS011;60035;52.122;5.406;2022-12-20T09:09:06;8.55;;;1.85;;
72156;SDS011;60035;52.122;5.406;2022-12-20T09:11:33;7.47;;;1.92;;
72156;SDS011;60035;52.122;5.406;2022-12-20T09:13:59;7.80;;;2.00;;
72156;SDS011;60035;52.122;5.406;2022-12-20T09:16:28;4.53;;;1.90;;
72156;SDS011;60035;52.122;5.406;2022-12-20T09:18:57;7.38;;;2.20;;
72156;SDS011;60035;52.122;5.406;2022-12-20T09:21:31;5.93;;;1.80;;
72156;SDS011;60035;52.122;5.406;2022-12-20T09:23:59;4.75;;;1.77;;
72156;SDS011;60035;52.122;5.406;2022-12-20T09:26:25;6.10;;;2.22;;
72156;SDS011;60035;52.122;5.406;2022-12-20T09:28:52;7.30;;;2.10;;
72156;SDS011;60035;52.122;5.406;2022-12-20T09:31:21;5.20;;;1.90;;
72156;SDS011;60035;52.122;5.406;2022-12-20T09:33:53;8.00;;;2.25;;
72156;SDS011;60035;52.122;5.406;2022-12-20T09:36:22;8.50;;;2.35;;
72156;SDS011;60035;52.122;5.406;2022-12-20T09:38:50;6.95;;;2.03;;
72156;SDS011;60035;52.122;5.406;2022-12-20T09:41:23;6.72;;;2.05;;
72156;SDS011;60035;52.122;5.406;2022-12-20T09:43:50;6.60;;;2.28;;
72156;SDS011;60035;52.122;5.406;2022-12-20T09:46:17;8.05;;;2.42;;
72156;SDS011;60035;52.122;5.406;2022-12-20T09:48:45;7.00;;;2.45;;
72156;SDS011;60035;52.122;5.406;2022-12-20T09:51:28;4.63;;;1.80;;
72156;SDS011;60035;52.122;5.406;2022-12-20T09:59:49;7.50;;;2.28;;
72156;SDS011;60035;52.122;5.406;2022-12-20T10:02:19;7.43;;;2.60;;
72156;SDS011;60035;52.122;5.406;2022-12-20T10:05:12;9.57;;;2.25;;
72156;SDS011;60035;52.122;5.406;2022-12-20T10:07:54;8.25;;;2.25;;
72156;SDS011;60035;52.122;5.406;2022-12-20T10:10:55;6.78;;;2.35;;
72156;SDS011;60035;52.122;5.406;2022-12-20T10:13:53;8.75;;;2.28;;
72156;SDS011;60035;52.122;5.406;2022-12-20T10:16:24;9.13;;;2.55;;
72156;SDS011;60035;52.122;5.406;2022-12-20T10:19:25;6.60;;;2.15;;
72156;SDS011;60035;52.122;5.406;2022-12-20T10:22:11;8.00;;;2.47;;
72156;SDS011;60035;52.122;5.406;2022-12-20T10:24:44;8.52;;;2.70;;
72156;SDS011;60035;52.122;5.406;2022-12-20T10:27:19;6.47;;;2.13;;
72156;SDS011;60035;52.122;5.406;2022-12-20T10:29:47;7.22;;;2.80;;
72156;SDS011;60035;52.122;5.406;2022-12-20T10:32:22;8.98;;;3.00;;
72156;SDS011;60035;52.122;5.406;2022-12-20T10:34:53;5.22;;;1.90;;
72156;SDS011;60035;52.122;5.406;2022-12-20T10:37:23;9.38;;;2.75;;
72156;SDS011;60035;52.122;5.406;2022-12-20T10:39:50;8.07;;;2.40;;
72156;SDS011;60035;52.122;5.406;2022-12-20T10:42:36;7.75;;;2.33;;
72156;SDS011;60035;52.122;5.406;2022-12-20T10:47:41;7.35;;;2.28;;
72156;SDS011;60035;52.122;5.406;2022-12-20T10:50:20;7.40;;;2.22;;
72156;SDS011;60035;52.122;5.406;2022-12-20T10:55:34;8.48;;;2.63;;
72156;SDS011;60035;52.122;5.406;2022-12-20T11:01:11;7.57;;;2.72;;
72156;SDS011;60035;52.122;5.406;2022-12-20T11:03:55;9.10;;;2.45;;
72156;SDS011;60035;52.122;5.406;2022-12-20T11:09:25;7.00;;;2.35;;
72156;SDS011;60035;52.122;5.406;2022-12-20T11:12:04;5.57;;;2.38;;
72156;SDS011;60035;52.122;5.406;2022-12-20T11:14:33;7.03;;;2.40;;
72156;SDS011;60035;52.122;5.406;2022-12-20T11:17:18;13.10;;;2.78;;
72156;SDS011;60035;52.122;5.406;2022-12-20T11:28:17;7.88;;;2.65;;
72156;SDS011;60035;52.122;5.406;2022-12-20T11:31:01;7.18;;;2.90;;
72156;SDS011;60035;52.122;5.406;2022-12-20T11:56:12;9.40;;;3.08;;
72156;SDS011;60035;52.122;5.406;2022-12-20T11:59:17;8.23;;;3.45;;
72156;SDS011;60035;52.122;5.406;2022-12-20T12:04:29;7.07;;;3.53;;
72156;SDS011;60035;52.122;5.406;2022-12-20T12:15:35;7.32;;;3.70;;
72156;SDS011;60035;52.122;5.406;2022-12-20T12:18:20;8.80;;;3.22;;
72156;SDS011;60035;52.122;5.406;2022-12-20T12:23:44;8.23;;;3.75;;
72156;SDS011;60035;52.122;5.406;2022-12-20T12:26:26;8.75;;;3.72;;
72156;SDS011;60035;52.122;5.406;2022-12-20T12:28:59;8.95;;;3.95;;
72156;SDS011;60035;52.122;5.406;2022-12-20T12:31:47;9.77;;;4.45;;
72156;SDS011;60035;52.122;5.406;2022-12-20T12:40:37;7.55;;;3.70;;
72156;SDS011;60035;52.122;5.406;2022-12-20T12:46:23;7.15;;;3.30;;
72156;SDS011;60035;52.122;5.406;2022-12-20T12:48:58;9.07;;;3.97;;
72156;SDS011;60035;52.122;5.406;2022-12-20T12:51:31;10.18;;;3.78;;
72156;SDS011;60035;52.122;5.406;2022-12-20T12:54:11;7.75;;;4.13;;
72156;SDS011;60035;52.122;5.406;2022-12-20T12:56:44;8.63;;;4.00;;
72156;SDS011;60035;52.122;5.406;2022-12-20T12:59:23;8.90;;;4.05;;
72156;SDS011;60035;52.122;5.406;2022-12-20T13:04:51;8.63;;;4.07;;
72156;SDS011;60035;52.122;5.406;2022-12-20T13:17:52;7.93;;;3.95;;
72156;SDS011;60035;52.122;5.406;2022-12-20T13:20:24;9.00;;;4.07;;
72156;SDS011;60035;52.122;5.406;2022-12-20T13:23:04;8.13;;;3.70;;
72156;SDS011;60035;52.122;5.406;2022-12-20T13:41:18;9.65;;;4.30;;
72156;SDS011;60035;52.122;5.406;2022-12-20T13:44:02;10.20;;;4.40;;
72156;SDS011;60035;52.122;5.406;2022-12-20T13:49:33;9.38;;;4.13;;
72156;SDS011;60035;52.122;5.406;2022-12-20T13:54:40;9.32;;;4.28;;
72156;SDS011;60035;52.122;5.406;2022-12-20T13:57:10;7.78;;;3.90;;
72156;SDS011;60035;52.122;5.406;2022-12-20T13:59:44;10.27;;;4.05;;
72156;SDS011;60035;52.122;5.406;2022-12-20T14:02:33;8.55;;;4.05;;
72156;SDS011;60035;52.122;5.406;2022-12-20T14:05:06;9.05;;;4.35;;
72156;SDS011;60035;52.122;5.406;2022-12-20T14:07:40;8.63;;;4.00;;
72156;SDS011;60035;52.122;5.406;2022-12-20T14:10:16;8.88;;;4.15;;
72156;SDS011;60035;52.122;5.406;2022-12-20T14:12:46;9.35;;;4.20;;
72156;SDS011;60035;52.122;5.406;2022-12-20T14:15:26;9.13;;;4.32;;
72156;SDS011;60035;52.122;5.406;2022-12-20T14:17:55;8.73;;;4.15;;
72156;SDS011;60035;52.122;5.406;2022-12-20T14:20:29;9.13;;;4.45;;
72156;SDS011;60035;52.122;5.406;2022-12-20T14:23:03;9.55;;;4.25;;
72156;SDS011;60035;52.122;5.406;2022-12-20T14:25:40;9.18;;;4.43;;
72156;SDS011;60035;52.122;5.406;2022-12-20T14:30:53;8.63;;;4.30;;
72156;SDS011;60035;52.122;5.406;2022-12-20T14:33:25;9.43;;;4.30;;
72156;SDS011;60035;52.122;5.406;2022-12-20T14:36:34;11.27;;;4.70;;
72156;SDS011;60035;52.122;5.406;2022-12-20T14:38:53;10.63;;;4.45;;
72156;SDS011;60035;52.122;5.406;2022-12-20T14:44:19;9.23;;;4.80;;
72156;SDS011;60035;52.122;5.406;2022-12-20T14:49:31;9.23;;;4.65;;
72156;SDS011;60035;52.122;5.406;2022-12-20T14:54:44;9.63;;;4.85;;
72156;SDS011;60035;52.122;5.406;2022-12-20T15:10:46;10.93;;;4.95;;
72156;SDS011;60035;52.122;5.406;2022-12-20T15:13:14;9.88;;;4.90;;
72156;SDS011;60035;52.122;5.406;2022-12-20T15:15:42;10.13;;;4.78;;
72156;SDS011;60035;52.122;5.406;2022-12-20T15:18:13;8.75;;;4.38;;
72156;SDS011;60035;52.122;5.406;2022-12-20T15:20:41;10.45;;;5.72;;
72156;SDS011;60035;52.122;5.406;2022-12-20T15:23:11;9.68;;;4.55;;
72156;SDS011;60035;52.122;5.406;2022-12-20T15:28:11;11.43;;;5.07;;
72156;SDS011;60035;52.122;5.406;2022-12-20T15:30:48;10.82;;;5.95;;
72156;SDS011;60035;52.122;5.406;2022-12-20T15:33:21;13.73;;;6.50;;
72156;SDS011;60035;52.122;5.406;2022-12-20T15:35:50;12.25;;;6.35;;
72156;SDS011;60035;52.122;5.406;2022-12-20T15:38:21;12.18;;;5.93;;
72156;SDS011;60035;52.122;5.406;2022-12-20T15:41:12;11.27;;;5.53;;
72156;SDS011;60035;52.122;5.406;2022-12-20T15:43:44;11.15;;;5.75;;
72156;SDS011;60035;52.122;5.406;2022-12-20T15:46:11;12.20;;;5.93;;
72156;SDS011;60035;52.122;5.406;2022-12-20T15:48:37;12.77;;;6.90;;
72156;SDS011;60035;52.122;5.406;2022-12-20T15:51:11;11.55;;;6.22;;
72156;SDS011;60035;52.122;5.406;2022-12-20T15:53:41;11.07;;;5.65;;
72156;SDS011;60035;52.122;5.406;2022-12-20T15:56:13;11.43;;;5.68;;
72156;SDS011;60035;52.122;5.406;2022-12-20T15:58:48;13.23;;;6.15;;
72156;SDS011;60035;52.122;5.406;2022-12-20T16:01:17;12.93;;;5.93;;
72156;SDS011;60035;52.122;5.406;2022-12-20T16:03:46;13.13;;;6.13;;
72156;SDS011;60035;52.122;5.406;2022-12-20T16:06:13;11.18;;;6.13;;
72156;SDS011;60035;52.122;5.406;2022-12-20T16:08:40;12.30;;;6.40;;
72156;SDS011;60035;52.122;5.406;2022-12-20T16:11:17;11.18;;;5.88;;
72156;SDS011;60035;52.122;5.406;2022-12-20T16:13:46;11.52;;;5.88;;
72156;SDS011;60035;52.122;5.406;2022-12-20T16:16:17;13.05;;;6.95;;
72156;SDS011;60035;52.122;5.406;2022-12-20T16:18:46;12.77;;;6.22;;
72156;SDS011;60035;52.122;5.406;2022-12-20T16:21:16;13.63;;;6.72;;
72156;SDS011;60035;52.122;5.406;2022-12-20T16:23:45;11.80;;;6.05;;
72156;SDS011;60035;52.122;5.406;2022-12-20T16:26:13;14.00;;;7.68;;
72156;SDS011;60035;52.122;5.406;2022-12-20T16:28:41;12.60;;;6.60;;
72156;SDS011;60035;52.122;5.406;2022-12-20T16:31:09;13.10;;;6.25;;
72156;SDS011;60035;52.122;5.406;2022-12-20T16:33:42;12.23;;;6.40;;
72156;SDS011;60035;52.122;5.406;2022-12-20T16:36:10;12.18;;;6.28;;
72156;SDS011;60035;52.122;5.406;2022-12-20T16:38:37;13.70;;;7.07;;
72156;SDS011;60035;52.122;5.406;2022-12-20T16:41:14;13.25;;;6.32;;
72156;SDS011;60035;52.122;5.406;2022-12-20T16:43:46;14.05;;;6.75;;
72156;SDS011;60035;52.122;5.406;2022-12-20T16:46:19;13.85;;;6.65;;
72156;SDS011;60035;52.122;5.406;2022-12-20T16:48:47;14.57;;;6.57;;
72156;SDS011;60035;52.122;5.406;2022-12-20T16:53:56;12.60;;;6.35;;
72156;SDS011;60035;52.122;5.406;2022-12-20T16:56:44;13.48;;;6.50;;
72156;SDS011;60035;52.122;5.406;2022-12-20T16:59:17;13.30;;;6.32;;
72156;SDS011;60035;52.122;5.406;2022-12-20T17:01:47;13.18;;;6.43;;
72156;SDS011;60035;52.122;5.406;2022-12-20T17:04:17;12.63;;;6.07;;
72156;SDS011;60035;52.122;5.406;2022-12-20T17:06:45;14.00;;;6.20;;
72156;SDS011;60035;52.122;5.406;2022-12-20T17:09:12;13.10;;;6.13;;
72156;SDS011;60035;52.122;5.406;2022-12-20T17:11:58;11.77;;;5.78;;
72156;SDS011;60035;52.122;5.406;2022-12-20T17:14:25;12.02;;;6.38;;
72156;SDS011;60035;52.122;5.406;2022-12-20T17:16:51;13.88;;;6.28;;
72156;SDS011;60035;52.122;5.406;2022-12-20T17:19:18;13.18;;;6.60;;
72156;SDS011;60035;52.122;5.406;2022-12-20T17:21:46;11.70;;;6.18;;
72156;SDS011;60035;52.122;5.406;2022-12-20T17:24:31;12.45;;;6.28;;
72156;SDS011;60035;52.122;5.406;2022-12-20T17:26:58;14.13;;;6.65;;
72156;SDS011;60035;52.122;5.406;2022-12-20T17:29:25;13.25;;;6.40;;
72156;SDS011;60035;52.122;5.406;2022-12-20T17:31:52;13.18;;;7.05;;
72156;SDS011;60035;52.122;5.406;2022-12-20T17:36:51;13.20;;;6.78;;
72156;SDS011;60035;52.122;5.406;2022-12-20T17:39:20;13.48;;;6.80;;
72156;SDS011;60035;52.122;5.406;2022-12-20T17:41:48;14.10;;;7.00;;
72156;SDS011;60035;52.122;5.406;2022-12-20T17:44:20;15.55;;;6.70;;